createdAt,value
2017-07-23T00:00:08.009Z,99.99
2017-07-23T00:00:36.179Z,99.99
2017-07-23T00:01:04.398Z,99.99
2017-07-23T00:01:32.353Z,99.99
2017-07-23T00:02:00.502Z,99.99
2017-07-23T00:02:28.708Z,99.99
2017-07-23T00:02:56.736Z,99.99
2017-07-23T00:03:24.972Z,99.99
2017-07-23T00:03:53.164Z,99.99
2017-07-23T00:04:21.321Z,99.99
2017-07-23T00:04:49.518Z,99.95
2017-07-23T00:05:17.723Z,99.85
2017-07-23T00:05:45.965Z,99.95
2017-07-23T00:06:14.207Z,99.99
2017-07-23T00:06:42.429Z,99.99
2017-07-23T00:07:10.757Z,99.9
2017-07-23T00:07:39.019Z,99.99
2017-07-23T00:08:07.276Z,99.66
2017-07-23T00:08:35.413Z,99.99
2017-07-23T00:09:03.439Z,99.99
2017-07-23T00:09:31.631Z,99.85
2017-07-23T00:09:59.873Z,99.66
2017-07-23T00:10:28.143Z,99.99
2017-07-23T00:10:56.244Z,99.99
2017-07-23T00:11:24.326Z,99.99
2017-07-23T00:11:52.576Z,99.99
2017-07-23T00:12:20.725Z,99.99
2017-07-23T00:12:48.898Z,99.95
2017-07-23T00:13:16.996Z,99.99
2017-07-23T00:13:45.214Z,99.99
2017-07-23T00:14:13.440Z,99.99
2017-07-23T00:14:41.440Z,99.76
2017-07-23T00:15:09.648Z,99.99
2017-07-23T00:15:37.759Z,99.99
2017-07-23T00:16:05.898Z,99.99
2017-07-23T00:16:34.137Z,99.99
2017-07-23T00:17:02.336Z,99.99
2017-07-23T00:17:30.637Z,99.99
2017-07-23T00:17:58.796Z,99.99
2017-07-23T00:18:27.015Z,99.99
2017-07-23T00:18:55.241Z,99.99
2017-07-23T00:19:23.522Z,99.99
2017-07-23T00:19:51.678Z,99.99
2017-07-23T00:20:19.807Z,99.99
2017-07-23T00:20:47.934Z,99.99
2017-07-23T00:21:16.017Z,99.99
2017-07-23T00:21:44.146Z,99.99
2017-07-23T00:22:12.292Z,99.99
2017-07-23T00:22:40.412Z,99.99
2017-07-23T00:23:08.628Z,99.99
2017-07-23T00:23:36.656Z,99.99
2017-07-23T00:24:04.812Z,99.99
2017-07-23T00:24:33.030Z,99.99
2017-07-23T00:25:01.319Z,99.99
2017-07-23T00:25:29.488Z,99.99
2017-07-23T00:25:57.634Z,99.99
2017-07-23T00:26:25.904Z,99.99
2017-07-23T00:26:54.164Z,99.9
2017-07-23T00:27:22.450Z,99.9
2017-07-23T00:27:50.605Z,99.99
2017-07-23T00:28:18.758Z,99.99
2017-07-23T00:28:46.989Z,99.99
2017-07-23T00:29:15.198Z,99.99
2017-07-23T00:29:43.454Z,99.99
2017-07-23T00:30:11.691Z,99.99
2017-07-23T00:30:39.908Z,99.99
2017-07-23T00:31:08.079Z,99.99
2017-07-23T00:31:36.032Z,99.99
2017-07-23T00:32:04.232Z,99.99
2017-07-23T00:32:32.678Z,99.99
2017-07-23T00:33:00.669Z,99.99
2017-07-23T00:33:28.721Z,99.99
2017-07-23T00:33:56.853Z,99.99
2017-07-23T00:34:25.073Z,99.99
2017-07-23T00:34:53.351Z,99.99
2017-07-23T00:35:21.486Z,99.99
2017-07-23T00:35:49.666Z,99.99
2017-07-23T00:36:17.777Z,99.99
2017-07-23T00:36:45.876Z,99.99
2017-07-23T00:37:14.049Z,99.99
2017-07-23T00:37:42.385Z,99.99
2017-07-23T00:38:10.613Z,99.99
2017-07-23T00:38:38.705Z,99.99
2017-07-23T00:39:06.908Z,99.99
2017-07-23T00:39:35.097Z,99.99
2017-07-23T00:40:03.254Z,99.99
2017-07-23T00:40:31.450Z,99.99
2017-07-23T00:40:59.637Z,99.99
2017-07-23T00:41:28.011Z,99.99
2017-07-23T00:41:56.117Z,99.99
2017-07-23T00:42:24.328Z,99.99
2017-07-23T00:42:52.549Z,99.99
2017-07-23T00:43:20.553Z,99.99
2017-07-23T00:43:48.654Z,99.99
2017-07-23T00:44:16.849Z,99.99
2017-07-23T00:44:45.084Z,99.99
2017-07-23T00:45:13.011Z,99.99
2017-07-23T00:45:41.136Z,99.99
2017-07-23T00:46:09.256Z,99.95
2017-07-23T00:46:37.350Z,99.99
2017-07-23T00:47:05.587Z,99.99
2017-07-23T00:47:33.890Z,99.99
2017-07-23T00:48:02.094Z,99.99
2017-07-23T00:48:30.306Z,99.99
2017-07-23T00:48:58.504Z,99.99
2017-07-23T00:49:26.756Z,99.99
2017-07-23T00:49:54.899Z,99.99
2017-07-23T00:50:23.014Z,99.99
2017-07-23T00:50:51.081Z,99.99
2017-07-23T00:51:19.359Z,99.99
2017-07-23T00:51:47.469Z,99.99
2017-07-23T00:52:15.565Z,99.99
2017-07-23T00:52:43.690Z,99.99
2017-07-23T00:53:11.927Z,99.99
2017-07-23T00:53:40.039Z,99.99
2017-07-23T00:54:08.196Z,99.99
2017-07-23T00:54:36.444Z,99.99
2017-07-23T00:55:04.634Z,99.99
2017-07-23T00:55:32.704Z,99.99
2017-07-23T00:56:00.930Z,99.99
2017-07-23T00:56:29.133Z,99.99
2017-07-23T00:56:57.377Z,99.99
2017-07-23T00:57:25.475Z,99.99
2017-07-23T00:57:53.563Z,99.99
2017-07-23T00:58:21.730Z,99.99
2017-07-23T00:58:49.955Z,99.99
2017-07-23T00:59:18.177Z,99.99
2017-07-23T00:59:46.382Z,99.99
2017-07-23T01:00:14.624Z,99.99
2017-07-23T01:00:42.858Z,99.99
2017-07-23T01:01:11.079Z,99.99
2017-07-23T01:01:39.278Z,99.99
2017-07-23T01:02:07.475Z,99.99
2017-07-23T01:02:35.678Z,99.99
2017-07-23T01:03:04.037Z,99.99
2017-07-23T01:03:32.269Z,99.99
2017-07-23T01:04:00.514Z,99.99
2017-07-23T01:04:28.654Z,99.99
2017-07-23T01:04:56.843Z,99.99
2017-07-23T01:05:24.889Z,99.95
2017-07-23T01:05:53.099Z,99.99
2017-07-23T01:06:21.299Z,99.99
2017-07-23T01:06:49.456Z,99.99
2017-07-23T01:07:17.698Z,99.99
2017-07-23T01:07:45.962Z,99.99
2017-07-23T01:08:14.067Z,99.99
2017-07-23T01:08:42.201Z,99.99
2017-07-23T01:09:10.411Z,99.99
2017-07-23T01:09:38.465Z,99.99
2017-07-23T01:10:06.591Z,99.99
2017-07-23T01:10:34.797Z,99.99
2017-07-23T01:11:03.033Z,99.99
2017-07-23T01:11:31.240Z,99.99
2017-07-23T01:11:59.266Z,99.99
2017-07-23T01:12:27.516Z,99.99
2017-07-23T01:12:55.778Z,99.99
2017-07-23T01:13:23.978Z,99.99
2017-07-23T01:13:52.125Z,99.99
2017-07-23T01:14:20.289Z,99.99
2017-07-23T01:14:48.506Z,99.99
2017-07-23T01:15:16.534Z,99.99
2017-07-23T01:15:44.740Z,99.99
2017-07-23T01:16:12.947Z,99.99
2017-07-23T01:16:40.993Z,99.99
2017-07-23T01:17:09.193Z,99.99
2017-07-23T01:17:37.274Z,99.81
2017-07-23T01:18:05.720Z,99.99
2017-07-23T01:18:33.852Z,99.99
2017-07-23T01:19:01.915Z,99.99
2017-07-23T01:19:30.133Z,99.99
2017-07-23T01:19:58.373Z,99.95
2017-07-23T01:20:26.537Z,99.57
2017-07-23T01:20:54.762Z,99.52
2017-07-23T01:21:23.026Z,99.48
2017-07-23T01:21:51.295Z,99.62
2017-07-23T01:22:19.492Z,99.85
2017-07-23T01:22:47.624Z,99.99
2017-07-23T01:23:15.908Z,99.99
2017-07-23T01:23:43.939Z,99.99
2017-07-23T01:24:12.129Z,99.99
2017-07-23T01:24:40.214Z,99.66
2017-07-23T01:25:08.316Z,99.99
2017-07-23T01:25:36.588Z,99.99
2017-07-23T01:26:04.700Z,99.99
2017-07-23T01:26:32.966Z,99.99
2017-07-23T01:27:01.191Z,99.99
2017-07-23T01:27:29.374Z,99.99
2017-07-23T01:27:57.595Z,99.99
2017-07-23T01:28:25.824Z,99.95
2017-07-23T01:28:53.762Z,99.99
2017-07-23T01:29:21.938Z,99.99
2017-07-23T01:29:50.162Z,99.99
2017-07-23T01:30:18.338Z,99.99
2017-07-23T01:30:46.512Z,99.99
2017-07-23T01:31:14.616Z,99.81
2017-07-23T01:31:42.857Z,99.71
2017-07-23T01:32:11.084Z,99.99
2017-07-23T01:32:39.145Z,99.9
2017-07-23T01:33:07.367Z,99.52
2017-07-23T01:33:35.508Z,99.81
2017-07-23T01:34:03.710Z,99.81
2017-07-23T01:34:31.900Z,99.81
2017-07-23T01:35:00.012Z,99.81
2017-07-23T01:35:28.262Z,99.81
2017-07-23T01:35:56.328Z,99.62
2017-07-23T01:36:24.456Z,99.71
2017-07-23T01:36:52.571Z,99.71
2017-07-23T01:37:20.764Z,99.33
2017-07-23T01:37:48.940Z,99.62
2017-07-23T01:38:17.191Z,99.52
2017-07-23T01:38:45.242Z,99.52
2017-07-23T01:39:13.426Z,99.62
2017-07-23T01:39:41.668Z,99.52
2017-07-23T01:40:09.861Z,99.43
2017-07-23T01:40:38.103Z,99.24
2017-07-23T01:41:06.209Z,99.62
2017-07-23T01:41:34.425Z,99.24
2017-07-23T01:42:02.637Z,99.24
2017-07-23T01:42:30.677Z,99.52
2017-07-23T01:42:58.868Z,99.52
2017-07-23T01:43:27.189Z,99.52
2017-07-23T01:43:55.287Z,99.71
2017-07-23T01:44:23.525Z,99.81
2017-07-23T01:44:51.694Z,99.81
2017-07-23T01:45:19.918Z,99.43
2017-07-23T01:45:48.217Z,99.43
2017-07-23T01:46:16.300Z,99.43
2017-07-23T01:46:44.538Z,99.62
2017-07-23T01:47:12.634Z,99.43
2017-07-23T01:47:40.665Z,99.62
2017-07-23T01:48:08.875Z,99.71
2017-07-23T01:48:37.002Z,99.81
2017-07-23T01:49:05.200Z,99.43
2017-07-23T01:49:33.306Z,99.62
2017-07-23T01:50:01.499Z,99.62
2017-07-23T01:50:29.524Z,99.71
2017-07-23T01:50:57.669Z,99.33
2017-07-23T01:51:25.881Z,99.71
2017-07-23T01:51:53.904Z,99.81
2017-07-23T01:52:22.013Z,99.81
2017-07-23T01:52:50.211Z,99.99
2017-07-23T01:53:18.531Z,99.9
2017-07-23T01:53:46.649Z,99.99
2017-07-23T01:54:14.708Z,99.99
2017-07-23T01:54:42.924Z,99.99
2017-07-23T01:55:11.048Z,99.99
2017-07-23T01:55:39.175Z,99.99
2017-07-23T01:56:07.407Z,99.99
2017-07-23T01:56:35.446Z,99.99
2017-07-23T01:57:03.498Z,99.99
2017-07-23T01:57:31.630Z,99.99
2017-07-23T01:57:59.662Z,99.99
2017-07-23T01:58:28.138Z,99.99
2017-07-23T01:58:56.234Z,99.99
2017-07-23T01:59:24.430Z,99.99
2017-07-23T01:59:52.666Z,99.99
2017-07-23T02:00:20.803Z,99.99
2017-07-23T02:00:48.807Z,99.99
2017-07-23T02:01:16.905Z,99.99
2017-07-23T02:01:45.132Z,99.99
2017-07-23T02:02:13.316Z,99.99
2017-07-23T02:02:41.321Z,99.99
2017-07-23T02:03:09.544Z,99.99
2017-07-23T02:03:37.800Z,99.99
2017-07-23T02:04:05.918Z,99.99
2017-07-23T02:04:33.955Z,99.99
2017-07-23T02:05:01.940Z,99.99
2017-07-23T02:05:29.977Z,99.99
2017-07-23T02:05:58.125Z,99.99
2017-07-23T02:06:26.181Z,99.99
2017-07-23T02:06:54.381Z,99.99
2017-07-23T02:07:22.592Z,99.99
2017-07-23T02:07:50.832Z,99.99
2017-07-23T02:08:18.930Z,99.99
2017-07-23T02:08:47.224Z,99.99
2017-07-23T02:09:15.366Z,99.99
2017-07-23T02:09:43.562Z,99.99
2017-07-23T02:10:11.753Z,99.99
2017-07-23T02:10:39.823Z,99.99
2017-07-23T02:11:07.789Z,99.99
2017-07-23T02:11:35.893Z,99.99
2017-07-23T02:12:04.011Z,99.99
2017-07-23T02:12:32.161Z,99.99
2017-07-23T02:13:00.333Z,99.99
2017-07-23T02:13:28.670Z,99.99
2017-07-23T02:13:56.852Z,99.99
2017-07-23T02:14:25.089Z,99.99
2017-07-23T02:14:53.396Z,99.99
2017-07-23T02:15:21.498Z,99.99
2017-07-23T02:15:49.676Z,99.99
2017-07-23T02:16:17.917Z,99.99
2017-07-23T02:16:46.124Z,99.99
2017-07-23T02:17:14.107Z,99.99
2017-07-23T02:17:42.303Z,99.99
2017-07-23T02:18:10.472Z,99.99
2017-07-23T02:18:38.847Z,99.99
2017-07-23T02:19:06.972Z,99.99
2017-07-23T02:19:35.191Z,99.99
2017-07-23T02:20:03.303Z,99.99
2017-07-23T02:20:31.433Z,99.99
2017-07-23T02:20:59.520Z,99.99
2017-07-23T02:21:27.682Z,99.99
2017-07-23T02:21:55.766Z,99.99
2017-07-23T02:22:23.897Z,99.99
2017-07-23T02:22:52.117Z,99.99
2017-07-23T02:23:20.323Z,99.99
2017-07-23T02:23:48.575Z,99.99
2017-07-23T02:24:16.753Z,99.99
2017-07-23T02:24:44.956Z,99.99
2017-07-23T02:25:13.074Z,99.99
2017-07-23T02:25:41.369Z,99.99
2017-07-23T02:26:09.588Z,99.99
2017-07-23T02:26:37.523Z,99.99
2017-07-23T02:27:05.721Z,99.99
2017-07-23T02:27:33.741Z,99.99
2017-07-23T02:28:01.971Z,99.99
2017-07-23T02:28:30.081Z,99.99
2017-07-23T02:28:58.315Z,99.99
2017-07-23T02:29:26.581Z,99.99
2017-07-23T02:29:54.702Z,99.99
2017-07-23T02:30:22.841Z,99.99
2017-07-23T02:30:50.838Z,99.99
2017-07-23T02:31:19.017Z,99.99
2017-07-23T02:31:47.218Z,99.99
2017-07-23T02:32:15.274Z,99.99
2017-07-23T02:32:43.472Z,99.99
2017-07-23T02:33:11.595Z,99.99
2017-07-23T02:33:39.854Z,99.99
2017-07-23T02:34:07.959Z,99.99
2017-07-23T02:34:36.110Z,99.99
2017-07-23T02:35:04.238Z,99.99
2017-07-23T02:35:32.358Z,99.99
2017-07-23T02:36:00.627Z,99.99
2017-07-23T02:36:28.667Z,99.99
2017-07-23T02:36:56.768Z,99.99
2017-07-23T02:37:24.999Z,99.99
2017-07-23T02:37:53.206Z,99.99
2017-07-23T02:38:21.304Z,99.99
2017-07-23T02:38:49.624Z,99.99
2017-07-23T02:39:17.828Z,99.99
2017-07-23T02:39:45.924Z,99.99
2017-07-23T02:40:14.081Z,99.99
2017-07-23T02:40:42.201Z,99.99
2017-07-23T02:41:10.292Z,99.99
2017-07-23T02:41:38.461Z,99.99
2017-07-23T02:42:06.612Z,99.99
2017-07-23T02:42:34.823Z,99.99
2017-07-23T02:43:02.840Z,99.99
2017-07-23T02:43:31.032Z,99.99
2017-07-23T02:43:59.500Z,99.99
2017-07-23T02:44:27.685Z,99.99
2017-07-23T02:44:55.814Z,99.99
2017-07-23T02:45:24.029Z,99.99
2017-07-23T02:45:52.222Z,99.99
2017-07-23T02:46:20.483Z,99.99
2017-07-23T02:46:48.599Z,99.99
2017-07-23T02:47:16.799Z,99.99
2017-07-23T02:47:44.795Z,99.99
2017-07-23T02:48:12.900Z,99.99
2017-07-23T02:48:40.989Z,99.99
2017-07-23T02:49:09.249Z,99.99
2017-07-23T02:49:37.327Z,99.99
2017-07-23T02:50:05.539Z,99.99
2017-07-23T02:50:33.665Z,99.99
2017-07-23T02:51:01.900Z,99.99
2017-07-23T02:51:30.149Z,99.99
2017-07-23T02:51:58.367Z,99.99
2017-07-23T02:52:26.647Z,99.99
2017-07-23T02:52:54.694Z,99.99
2017-07-23T02:53:22.937Z,99.99
2017-07-23T02:53:51.218Z,99.99
2017-07-23T02:54:19.426Z,99.99
2017-07-23T02:54:47.491Z,99.99
2017-07-23T02:55:15.625Z,99.99
2017-07-23T02:55:43.696Z,99.99
2017-07-23T02:56:11.773Z,99.99
2017-07-23T02:56:39.926Z,99.99
2017-07-23T02:57:08.075Z,99.99
2017-07-23T02:57:36.128Z,99.99
2017-07-23T02:58:04.406Z,99.99
2017-07-23T02:58:32.520Z,99.99
2017-07-23T02:59:00.879Z,99.99
2017-07-23T02:59:29.079Z,99.99
2017-07-23T02:59:57.021Z,99.99
2017-07-23T03:00:25.235Z,99.99
2017-07-23T03:00:53.279Z,99.99
2017-07-23T03:01:21.409Z,99.99
2017-07-23T03:01:49.694Z,99.99
2017-07-23T03:02:17.906Z,99.99
2017-07-23T03:02:46.108Z,99.99
2017-07-23T03:03:14.247Z,99.99
2017-07-23T03:03:42.503Z,99.99
2017-07-23T03:04:10.773Z,99.99
2017-07-23T03:04:39.044Z,99.99
2017-07-23T03:05:07.264Z,99.99
2017-07-23T03:05:35.454Z,99.99
2017-07-23T03:06:03.581Z,99.99
2017-07-23T03:06:31.808Z,99.99
2017-07-23T03:06:59.937Z,99.99
2017-07-23T03:07:28.180Z,99.99
2017-07-23T03:07:56.400Z,99.99
2017-07-23T03:08:24.613Z,99.99
2017-07-23T03:08:52.839Z,99.99
2017-07-23T03:09:21.302Z,99.99
2017-07-23T03:09:49.386Z,99.99
2017-07-23T03:10:17.535Z,99.99
2017-07-23T03:10:45.718Z,99.99
2017-07-23T03:11:13.835Z,99.99
2017-07-23T03:11:42.078Z,99.99
2017-07-23T03:12:10.111Z,99.99
2017-07-23T03:12:38.355Z,99.99
2017-07-23T03:13:06.497Z,99.99
2017-07-23T03:13:34.683Z,99.99
2017-07-23T03:14:02.856Z,99.99
2017-07-23T03:14:31.116Z,99.99
2017-07-23T03:14:59.086Z,99.99
2017-07-23T03:15:27.231Z,99.99
2017-07-23T03:15:55.407Z,99.99
2017-07-23T03:16:23.674Z,99.99
2017-07-23T03:16:51.791Z,99.99
2017-07-23T03:17:19.989Z,99.99
2017-07-23T03:17:48.253Z,99.99
2017-07-23T03:18:16.474Z,99.99
2017-07-23T03:18:44.635Z,99.99
2017-07-23T03:19:12.982Z,99.99
2017-07-23T03:19:40.987Z,99.99
2017-07-23T03:20:09.150Z,99.99
2017-07-23T03:20:37.298Z,99.99
2017-07-23T03:21:05.493Z,99.99
2017-07-23T03:21:33.645Z,99.99
2017-07-23T03:22:01.904Z,99.99
2017-07-23T03:22:29.914Z,99.99
2017-07-23T03:22:58.169Z,99.99
2017-07-23T03:23:26.377Z,99.99
2017-07-23T03:23:54.513Z,99.99
2017-07-23T03:24:22.861Z,99.99
2017-07-23T03:24:50.868Z,99.99
2017-07-23T03:25:18.937Z,99.99
2017-07-23T03:25:47.006Z,99.99
2017-07-23T03:26:15.239Z,99.99
2017-07-23T03:26:43.402Z,99.99
2017-07-23T03:27:11.508Z,99.99
2017-07-23T03:27:39.497Z,99.99
2017-07-23T03:28:07.722Z,99.99
2017-07-23T03:28:35.875Z,99.99
2017-07-23T03:29:03.891Z,99.99
2017-07-23T03:29:32.095Z,99.99
2017-07-23T03:30:00.226Z,99.99
2017-07-23T03:30:28.395Z,99.99
2017-07-23T03:30:56.561Z,99.99
2017-07-23T03:31:24.559Z,99.99
2017-07-23T03:31:52.697Z,99.99
2017-07-23T03:32:20.894Z,99.99
2017-07-23T03:32:49.130Z,99.99
2017-07-23T03:33:17.042Z,99.99
2017-07-23T03:33:45.159Z,99.99
2017-07-23T03:34:13.331Z,99.99
2017-07-23T03:34:41.659Z,99.99
2017-07-23T03:35:09.892Z,99.99
2017-07-23T03:35:38.109Z,99.99
2017-07-23T03:36:06.128Z,99.99
2017-07-23T03:36:34.381Z,99.99
2017-07-23T03:37:02.619Z,99.99
2017-07-23T03:37:30.854Z,99.99
2017-07-23T03:37:59.075Z,99.99
2017-07-23T03:38:27.194Z,99.99
2017-07-23T03:38:55.438Z,99.99
2017-07-23T03:39:23.721Z,99.99
2017-07-23T03:39:51.856Z,99.99
2017-07-23T03:40:20.094Z,99.99
2017-07-23T03:40:48.350Z,99.99
2017-07-23T03:41:16.476Z,99.99
2017-07-23T03:41:44.692Z,99.99
2017-07-23T03:42:12.990Z,99.99
2017-07-23T03:42:41.168Z,99.99
2017-07-23T03:43:09.342Z,99.99
2017-07-23T03:43:37.519Z,99.99
2017-07-23T03:44:05.750Z,99.99
2017-07-23T03:44:33.999Z,99.99
2017-07-23T03:45:02.193Z,99.99
2017-07-23T03:45:30.335Z,99.99
2017-07-23T03:45:58.415Z,99.99
2017-07-23T03:46:26.657Z,99.99
2017-07-23T03:46:54.870Z,99.99
2017-07-23T03:47:22.914Z,99.99
2017-07-23T03:47:50.822Z,99.99
2017-07-23T03:48:19.202Z,99.99
2017-07-23T03:48:47.221Z,99.99
2017-07-23T03:49:15.230Z,99.99
2017-07-23T03:49:43.531Z,99.99
2017-07-23T03:50:11.719Z,99.99
2017-07-23T03:50:39.824Z,99.99
2017-07-23T03:51:08.004Z,99.99
2017-07-23T03:51:36.104Z,99.99
2017-07-23T03:52:04.281Z,99.99
2017-07-23T03:52:32.278Z,99.99
2017-07-23T03:53:00.510Z,99.99
2017-07-23T03:53:28.602Z,99.99
2017-07-23T03:53:56.784Z,99.99
2017-07-23T03:54:25.137Z,99.99
2017-07-23T03:54:53.292Z,99.99
2017-07-23T03:55:21.467Z,99.99
2017-07-23T03:55:49.678Z,99.99
2017-07-23T03:56:17.856Z,99.99
2017-07-23T03:56:46.079Z,99.99
2017-07-23T03:57:14.324Z,99.99
2017-07-23T03:57:42.347Z,99.99
2017-07-23T03:58:10.557Z,99.99
2017-07-23T03:58:38.690Z,99.99
2017-07-23T03:59:06.831Z,99.99
2017-07-23T03:59:35.217Z,99.9
2017-07-23T04:00:03.376Z,99.99
2017-07-23T04:00:31.599Z,99.62
2017-07-23T04:00:59.831Z,99.52
2017-07-23T04:01:28.048Z,99.99
2017-07-23T04:01:56.298Z,99.81
2017-07-23T04:02:24.503Z,99.76
2017-07-23T04:02:52.603Z,99.33
2017-07-23T04:03:20.738Z,99.43
2017-07-23T04:03:48.895Z,99.62
2017-07-23T04:04:16.984Z,99.52
2017-07-23T04:04:45.175Z,99.62
2017-07-23T04:05:13.434Z,99.62
2017-07-23T04:05:41.672Z,99.9
2017-07-23T04:06:09.644Z,99.62
2017-07-23T04:06:37.836Z,99.81
2017-07-23T04:07:05.866Z,99.62
2017-07-23T04:07:34.093Z,99.67
2017-07-23T04:08:02.291Z,99.33
2017-07-23T04:08:30.479Z,99.29
2017-07-23T04:08:58.596Z,99.43
2017-07-23T04:09:26.674Z,99.52
2017-07-23T04:09:55.017Z,99.62
2017-07-23T04:10:23.103Z,99.38
2017-07-23T04:10:51.010Z,99.9
2017-07-23T04:11:19.188Z,99.52
2017-07-23T04:11:47.308Z,99.9
2017-07-23T04:12:15.387Z,99.62
2017-07-23T04:12:43.428Z,99.71
2017-07-23T04:13:11.448Z,99.62
2017-07-23T04:13:39.973Z,99.81
2017-07-23T04:14:07.982Z,99.62
2017-07-23T04:14:36.109Z,99.62
2017-07-23T04:15:04.232Z,99.81
2017-07-23T04:15:32.375Z,99.9
2017-07-23T04:16:00.542Z,99.62
2017-07-23T04:16:28.617Z,99.86
2017-07-23T04:16:56.760Z,99.62
2017-07-23T04:17:24.963Z,99.67
2017-07-23T04:17:53.182Z,99.81
2017-07-23T04:18:21.287Z,99.62
2017-07-23T04:18:49.303Z,99.67
2017-07-23T04:19:17.781Z,99.62
2017-07-23T04:19:46.123Z,99.48
2017-07-23T04:20:14.284Z,99.57
2017-07-23T04:20:42.541Z,99.38
2017-07-23T04:21:10.556Z,99.86
2017-07-23T04:21:38.728Z,99.67
2017-07-23T04:22:06.924Z,99.96
2017-07-23T04:22:35.133Z,99.86
2017-07-23T04:23:03.135Z,99.67
2017-07-23T04:23:31.318Z,99.48
2017-07-23T04:23:59.492Z,99.86
2017-07-23T04:24:27.633Z,99.52
2017-07-23T04:24:55.996Z,99.57
2017-07-23T04:25:24.120Z,98.81
2017-07-23T04:25:52.323Z,99.19
2017-07-23T04:26:20.531Z,98.9
2017-07-23T04:26:48.736Z,99.1
2017-07-23T04:27:17.052Z,99.1
2017-07-23T04:27:45.148Z,99.57
2017-07-23T04:28:13.257Z,99.57
2017-07-23T04:28:41.420Z,99.57
2017-07-23T04:29:09.628Z,99.86
2017-07-23T04:29:37.859Z,99.67
2017-07-23T04:30:06.197Z,99.86
2017-07-23T04:30:34.325Z,99.62
2017-07-23T04:31:02.463Z,99.67
2017-07-23T04:31:30.583Z,99.48
2017-07-23T04:31:58.794Z,99.86
2017-07-23T04:32:26.881Z,99.99
2017-07-23T04:32:55.073Z,99.99
2017-07-23T04:33:23.293Z,99.76
2017-07-23T04:33:51.423Z,99.57
2017-07-23T04:34:19.563Z,99.62
2017-07-23T04:34:47.723Z,99.99
2017-07-23T04:35:16.138Z,99.99
2017-07-23T04:35:44.261Z,99.96
2017-07-23T04:36:12.500Z,99.99
2017-07-23T04:36:40.669Z,99.99
2017-07-23T04:37:08.697Z,99.99
2017-07-23T04:37:36.968Z,99.99
2017-07-23T04:38:05.094Z,99.99
2017-07-23T04:38:33.017Z,99.99
2017-07-23T04:39:01.076Z,99.99
2017-07-23T04:39:29.277Z,99.99
2017-07-23T04:39:57.733Z,99.99
2017-07-23T04:40:25.933Z,99.99
2017-07-23T04:40:54.139Z,99.99
2017-07-23T04:41:22.281Z,99.99
2017-07-23T04:41:50.318Z,99.99
2017-07-23T04:42:18.517Z,99.99
2017-07-23T04:42:46.622Z,99.99
2017-07-23T04:43:14.704Z,99.99
2017-07-23T04:43:42.949Z,99.99
2017-07-23T04:44:11.060Z,99.99
2017-07-23T04:44:39.115Z,99.99
2017-07-23T04:45:07.468Z,99.99
2017-07-23T04:45:35.703Z,99.99
2017-07-23T04:46:03.933Z,99.99
2017-07-23T04:46:32.144Z,99.99
2017-07-23T04:47:00.370Z,99.99
2017-07-23T04:47:28.508Z,99.99
2017-07-23T04:47:56.575Z,99.99
2017-07-23T04:48:24.669Z,99.99
2017-07-23T04:48:52.970Z,99.99
2017-07-23T04:49:21.017Z,99.99
2017-07-23T04:49:49.255Z,99.99
2017-07-23T04:50:17.622Z,99.99
2017-07-23T04:50:45.840Z,99.99
2017-07-23T04:51:13.980Z,99.99
2017-07-23T04:51:42.251Z,99.99
2017-07-23T04:52:10.524Z,99.99
2017-07-23T04:52:38.751Z,99.99
2017-07-23T04:53:06.902Z,99.99
2017-07-23T04:53:35.150Z,99.99
2017-07-23T04:54:03.292Z,99.99
2017-07-23T04:54:31.401Z,99.99
2017-07-23T04:54:59.644Z,99.99
2017-07-23T04:55:27.868Z,99.99
2017-07-23T04:55:56.081Z,99.99
2017-07-23T04:56:24.230Z,99.99
2017-07-23T04:56:52.498Z,99.99
2017-07-23T04:57:20.733Z,99.99
2017-07-23T04:57:49.005Z,99.99
2017-07-23T04:58:17.251Z,99.99
2017-07-23T04:58:45.368Z,99.99
2017-07-23T04:59:13.430Z,99.99
2017-07-23T04:59:41.703Z,99.99
2017-07-23T05:00:10.201Z,99.99
2017-07-23T05:00:38.410Z,99.99
2017-07-23T05:01:06.476Z,99.99
2017-07-23T05:01:34.515Z,99.99
2017-07-23T05:02:02.707Z,99.99
2017-07-23T05:02:30.868Z,99.99
2017-07-23T05:02:58.922Z,99.99
2017-07-23T05:03:27.144Z,99.99
2017-07-23T05:03:55.185Z,99.99
2017-07-23T05:04:23.375Z,99.99
2017-07-23T05:04:51.544Z,99.99
2017-07-23T05:05:19.786Z,99.99
2017-07-23T05:05:47.794Z,99.99
2017-07-23T05:06:16.019Z,99.99
2017-07-23T05:06:44.123Z,99.99
2017-07-23T05:07:12.375Z,99.99
2017-07-23T05:07:40.437Z,99.99
2017-07-23T05:08:08.534Z,99.99
2017-07-23T05:08:36.728Z,99.99
2017-07-23T05:09:04.857Z,99.99
2017-07-23T05:09:33.016Z,99.99
2017-07-23T05:10:01.047Z,99.99
2017-07-23T05:10:29.280Z,99.99
2017-07-23T05:10:57.513Z,99.99
2017-07-23T05:11:25.715Z,99.99
2017-07-23T05:11:54.044Z,99.99
2017-07-23T05:12:22.266Z,99.99
2017-07-23T05:12:50.512Z,99.99
2017-07-23T05:13:18.762Z,99.99
2017-07-23T05:13:46.863Z,99.99
2017-07-23T05:14:15.039Z,99.99
2017-07-23T05:14:43.177Z,99.99
2017-07-23T05:15:11.324Z,99.99
2017-07-23T05:15:39.623Z,99.99
2017-07-23T05:16:07.844Z,99.99
2017-07-23T05:16:36.032Z,99.99
2017-07-23T05:17:04.183Z,99.99
2017-07-23T05:17:32.290Z,99.99
2017-07-23T05:18:00.458Z,99.99
2017-07-23T05:18:28.740Z,99.99
2017-07-23T05:18:56.884Z,99.99
2017-07-23T05:19:24.929Z,99.99
2017-07-23T05:19:53.023Z,99.99
2017-07-23T05:20:21.326Z,99.99
2017-07-23T05:20:49.564Z,99.99
2017-07-23T05:21:17.736Z,99.99
2017-07-23T05:21:45.876Z,99.99
2017-07-23T05:22:14.137Z,99.99
2017-07-23T05:22:42.301Z,99.99
2017-07-23T05:23:10.284Z,99.99
2017-07-23T05:23:38.371Z,99.99
2017-07-23T05:24:06.485Z,99.99
2017-07-23T05:24:34.508Z,99.99
2017-07-23T05:25:02.590Z,99.99
2017-07-23T05:25:30.894Z,99.99
2017-07-23T05:25:58.991Z,99.99
2017-07-23T05:26:27.130Z,99.99
2017-07-23T05:26:55.292Z,99.99
2017-07-23T05:27:23.408Z,99.99
2017-07-23T05:27:51.528Z,99.99
2017-07-23T05:28:19.777Z,99.99
2017-07-23T05:28:48.032Z,99.99
2017-07-23T05:29:16.101Z,99.99
2017-07-23T05:29:44.326Z,99.99
2017-07-23T05:30:12.433Z,99.99
2017-07-23T05:30:40.724Z,99.99
2017-07-23T05:31:08.928Z,99.99
2017-07-23T05:31:37.115Z,99.99
2017-07-23T05:32:05.227Z,99.99
2017-07-23T05:32:33.464Z,99.99
2017-07-23T05:33:01.722Z,99.99
2017-07-23T05:33:29.833Z,99.99
2017-07-23T05:33:58.075Z,99.99
2017-07-23T05:34:26.332Z,99.99
2017-07-23T05:34:54.404Z,99.99
2017-07-23T05:35:22.708Z,99.99
2017-07-23T05:35:50.904Z,99.99
2017-07-23T05:36:19.049Z,99.99
2017-07-23T05:36:47.091Z,99.99
2017-07-23T05:37:15.084Z,99.99
2017-07-23T05:37:43.225Z,99.99
2017-07-23T05:38:11.347Z,99.99
2017-07-23T05:38:39.558Z,99.99
2017-07-23T05:39:07.735Z,99.99
2017-07-23T05:39:35.933Z,99.99
2017-07-23T05:40:04.140Z,99.99
2017-07-23T05:40:32.450Z,99.99
2017-07-23T05:41:00.620Z,99.99
2017-07-23T05:41:28.906Z,99.99
2017-07-23T05:41:57.116Z,99.99
2017-07-23T05:42:25.390Z,99.99
2017-07-23T05:42:53.715Z,99.99
2017-07-23T05:43:21.926Z,99.99
2017-07-23T05:43:49.999Z,99.99
2017-07-23T05:44:18.234Z,99.99
2017-07-23T05:44:46.488Z,99.99
2017-07-23T05:45:14.789Z,99.99
2017-07-23T05:45:43.223Z,99.99
2017-07-23T05:46:11.416Z,99.99
2017-07-23T05:46:39.623Z,99.99
2017-07-23T05:47:07.996Z,99.99
2017-07-23T05:47:36.214Z,99.99
2017-07-23T05:48:04.340Z,99.99
2017-07-23T05:48:32.589Z,99.99
2017-07-23T05:49:00.839Z,99.99
2017-07-23T05:49:29.080Z,99.99
2017-07-23T05:49:57.099Z,99.99
2017-07-23T05:50:25.191Z,99.99
2017-07-23T05:50:53.523Z,99.99
2017-07-23T05:51:21.657Z,99.99
2017-07-23T05:51:49.781Z,99.99
2017-07-23T05:52:17.986Z,99.99
2017-07-23T05:52:46.129Z,99.99
2017-07-23T05:53:14.281Z,99.99
2017-07-23T05:53:42.377Z,99.99
2017-07-23T05:54:10.395Z,99.99
2017-07-23T05:54:38.704Z,99.99
2017-07-23T05:55:06.946Z,99.99
2017-07-23T05:55:35.153Z,99.99
2017-07-23T05:56:03.169Z,99.99
2017-07-23T05:56:31.187Z,99.99
2017-07-23T05:56:59.407Z,99.99
2017-07-23T05:57:27.650Z,99.99
2017-07-23T05:57:55.721Z,99.99
2017-07-23T05:58:23.840Z,99.99
2017-07-23T05:58:51.977Z,99.99
2017-07-23T05:59:20.200Z,99.99
2017-07-23T05:59:48.337Z,99.99
2017-07-23T06:00:16.470Z,99.99
2017-07-23T06:00:44.777Z,99.99
2017-07-23T06:01:12.933Z,99.99
2017-07-23T06:01:41.109Z,99.99
2017-07-23T06:02:09.153Z,99.99
2017-07-23T06:02:37.294Z,99.99
2017-07-23T06:03:05.448Z,99.99